< < Back
Terminal Aerodrome Forecast


Current Version              Previous Versions:   1  2  3  4  5  6  7  8  9  

Terminal Aerodrome Forecast

111
FTUS42 KGSP 231124
TAFAVL
TAF
KAVL 231124Z 2312/2412 VRB02KT 2SM BR BKN002 BKN250
      TEMPO 2312/2313 1SM BR
     FM231400 33004KT P6SM FEW050 SCT250
     FM231700 28003KT P6SM VCTS SCT050CB SCT250 PROB30 2321/2324 4SM
      -TSRA OVC025CB
     FM240000 00000KT P6SM BKN250
     FM240900 00000KT 4SM BR FEW250=

Latest METAR

017
SAUS70 KWBC 232300
MTRAVL
METAR KAVL 232254Z 00000KT 10SM CLR 28/21 A3007 RMK AO2 SLP152
T02830211


USA.gov is the U.S. government's official web portal to all federal, state and local government web resources and services.